sensor_id;sensor_type;location;lat;lon;timestamp;pressure;altitude;pressure_sealevel;temperature;humidity
49178;BME280;35016;55.674;37.468;2023-04-19T00:00:17;99917.13;;;10.99;38.52
49178;BME280;35016;55.674;37.468;2023-04-19T00:02:45;99919.25;;;10.97;38.75
49178;BME280;35016;55.674;37.468;2023-04-19T00:05:15;99926.81;;;10.95;38.97
49178;BME280;35016;55.674;37.468;2023-04-19T00:07:42;99926.25;;;10.93;38.49
49178;BME280;35016;55.674;37.468;2023-04-19T00:10:09;99927.56;;;10.91;38.27
49178;BME280;35016;55.674;37.468;2023-04-19T00:12:36;99928.41;;;10.91;38.68
49178;BME280;35016;55.674;37.468;2023-04-19T00:15:04;99924.59;;;10.92;38.61
49178;BME280;35016;55.674;37.468;2023-04-19T00:17:32;99925.69;;;10.91;38.63
49178;BME280;35016;55.674;37.468;2023-04-19T00:19:59;99920.19;;;10.86;38.64
49178;BME280;35016;55.674;37.468;2023-04-19T00:22:27;99924.28;;;10.89;38.50
49178;BME280;35016;55.674;37.468;2023-04-19T00:24:54;99935.09;;;10.83;38.79
49178;BME280;35016;55.674;37.468;2023-04-19T00:27:21;99932.94;;;10.85;38.66
49178;BME280;35016;55.674;37.468;2023-04-19T00:29:48;99921.19;;;10.80;38.54
49178;BME280;35016;55.674;37.468;2023-04-19T00:32:15;99930.47;;;10.84;38.52
49178;BME280;35016;55.674;37.468;2023-04-19T00:34:42;99928.84;;;10.83;38.90
49178;BME280;35016;55.674;37.468;2023-04-19T00:37:09;99928.00;;;10.82;38.69
49178;BME280;35016;55.674;37.468;2023-04-19T00:39:38;99928.78;;;10.78;38.78
49178;BME280;35016;55.674;37.468;2023-04-19T00:42:05;99928.53;;;10.79;39.19
49178;BME280;35016;55.674;37.468;2023-04-19T00:44:32;99933.94;;;10.79;38.98
49178;BME280;35016;55.674;37.468;2023-04-19T00:46:59;99936.34;;;10.76;38.54
49178;BME280;35016;55.674;37.468;2023-04-19T00:49:28;99934.13;;;10.73;38.70
49178;BME280;35016;55.674;37.468;2023-04-19T00:51:55;99935.44;;;10.70;39.20
49178;BME280;35016;55.674;37.468;2023-04-19T00:54:22;99933.22;;;10.67;38.73
49178;BME280;35016;55.674;37.468;2023-04-19T00:56:50;99945.69;;;10.68;39.43
49178;BME280;35016;55.674;37.468;2023-04-19T00:59:17;99940.28;;;10.68;39.11
49178;BME280;35016;55.674;37.468;2023-04-19T01:01:44;99941.34;;;10.67;38.66
49178;BME280;35016;55.674;37.468;2023-04-19T01:04:12;99937.81;;;10.67;39.05
49178;BME280;35016;55.674;37.468;2023-04-19T01:06:40;99928.53;;;10.63;38.73
49178;BME280;35016;55.674;37.468;2023-04-19T01:09:09;99927.66;;;10.57;38.95
49178;BME280;35016;55.674;37.468;2023-04-19T01:11:39;99936.34;;;10.59;39.33
49178;BME280;35016;55.674;37.468;2023-04-19T01:14:09;99938.75;;;10.55;38.81
49178;BME280;35016;55.674;37.468;2023-04-19T01:16:36;99934.41;;;10.54;39.48
49178;BME280;35016;55.674;37.468;2023-04-19T01:19:05;99940.88;;;10.53;39.14
49178;BME280;35016;55.674;37.468;2023-04-19T01:21:32;99936.78;;;10.51;39.30
49178;BME280;35016;55.674;37.468;2023-04-19T01:23:59;99939.75;;;10.49;39.01
49178;BME280;35016;55.674;37.468;2023-04-19T01:26:26;99943.53;;;10.48;39.62
49178;BME280;35016;55.674;37.468;2023-04-19T01:28:53;99939.16;;;10.47;39.65
49178;BME280;35016;55.674;37.468;2023-04-19T01:31:21;99939.41;;;10.46;39.75
49178;BME280;35016;55.674;37.468;2023-04-19T01:33:48;99939.66;;;10.44;39.44
49178;BME280;35016;55.674;37.468;2023-04-19T01:36:15;99942.63;;;10.43;39.25
49178;BME280;35016;55.674;37.468;2023-04-19T01:38:42;99937.47;;;10.41;39.47
49178;BME280;35016;55.674;37.468;2023-04-19T01:41:09;99938.75;;;10.39;39.43
49178;BME280;35016;55.674;37.468;2023-04-19T01:43:36;99940.88;;;10.37;39.17
49178;BME280;35016;55.674;37.468;2023-04-19T01:46:03;99941.94;;;10.36;39.32
49178;BME280;35016;55.674;37.468;2023-04-19T01:48:30;99943.28;;;10.33;39.46
49178;BME280;35016;55.674;37.468;2023-04-19T01:50:58;99930.72;;;10.27;38.78
49178;BME280;35016;55.674;37.468;2023-04-19T01:53:26;99938.59;;;10.29;40.03
49178;BME280;35016;55.674;37.468;2023-04-19T01:55:54;99942.63;;;10.26;39.24
49178;BME280;35016;55.674;37.468;2023-04-19T01:58:21;99931.44;;;10.22;39.35
49178;BME280;35016;55.674;37.468;2023-04-19T02:00:48;99927.09;;;10.21;39.77
49178;BME280;35016;55.674;37.468;2023-04-19T02:03:15;99929.22;;;10.19;39.09
49178;BME280;35016;55.674;37.468;2023-04-19T02:05:43;99928.06;;;10.15;39.49
49178;BME280;35016;55.674;37.468;2023-04-19T02:08:10;99927.69;;;10.12;39.75
49178;BME280;35016;55.674;37.468;2023-04-19T02:10:37;99934.19;;;10.11;39.61
49178;BME280;35016;55.674;37.468;2023-04-19T02:13:05;99938.22;;;10.08;39.38
49178;BME280;35016;55.674;37.468;2023-04-19T02:15:32;99936.81;;;10.06;39.71
49178;BME280;35016;55.674;37.468;2023-04-19T02:18:20;99935.44;;;10.03;39.52
49178;BME280;35016;55.674;37.468;2023-04-19T02:20:47;99937.31;;;10.03;40.29
49178;BME280;35016;55.674;37.468;2023-04-19T02:23:14;99935.09;;;10.00;40.16
49178;BME280;35016;55.674;37.468;2023-04-19T02:25:41;99941.81;;;9.97;40.04
49178;BME280;35016;55.674;37.468;2023-04-19T02:28:08;99941.00;;;9.97;40.09
49178;BME280;35016;55.674;37.468;2023-04-19T02:30:35;99944.78;;;9.96;40.05
49178;BME280;35016;55.674;37.468;2023-04-19T02:33:02;99939.84;;;9.92;40.05
49178;BME280;35016;55.674;37.468;2023-04-19T02:35:29;99945.53;;;9.91;39.82
49178;BME280;35016;55.674;37.468;2023-04-19T02:38:01;99947.16;;;9.92;39.52
49178;BME280;35016;55.674;37.468;2023-04-19T02:40:29;99945.53;;;9.91;40.26
49178;BME280;35016;55.674;37.468;2023-04-19T02:42:57;99943.63;;;9.91;39.84
49178;BME280;35016;55.674;37.468;2023-04-19T02:45:24;99950.44;;;9.94;40.20
49178;BME280;35016;55.674;37.468;2023-04-19T02:47:53;99953.97;;;9.94;40.26
49178;BME280;35016;55.674;37.468;2023-04-19T02:50:22;99956.19;;;9.98;40.21
49178;BME280;35016;55.674;37.468;2023-04-19T02:52:50;99946.19;;;9.98;40.11
49178;BME280;35016;55.674;37.468;2023-04-19T02:55:18;99955.47;;;10.02;39.99
49178;BME280;35016;55.674;37.468;2023-04-19T02:57:49;99951.69;;;10.03;39.97
49178;BME280;35016;55.674;37.468;2023-04-19T03:00:17;99949.78;;;10.04;40.32
49178;BME280;35016;55.674;37.468;2023-04-19T03:02:56;99951.75;;;10.08;40.00
49178;BME280;35016;55.674;37.468;2023-04-19T03:05:24;99953.16;;;10.11;39.92
49178;BME280;35016;55.674;37.468;2023-04-19T03:07:51;99950.00;;;10.14;40.22
49178;BME280;35016;55.674;37.468;2023-04-19T03:10:18;99952.44;;;10.15;40.31
49178;BME280;35016;55.674;37.468;2023-04-19T03:12:45;99951.38;;;10.16;40.05
49178;BME280;35016;55.674;37.468;2023-04-19T03:15:12;99953.03;;;10.17;40.40
49178;BME280;35016;55.674;37.468;2023-04-19T03:17:40;99960.09;;;10.18;40.13
49178;BME280;35016;55.674;37.468;2023-04-19T03:20:07;99957.97;;;10.20;39.97
49178;BME280;35016;55.674;37.468;2023-04-19T03:22:37;99962.91;;;10.23;39.92
49178;BME280;35016;55.674;37.468;2023-04-19T03:25:05;99960.53;;;10.27;40.45
49178;BME280;35016;55.674;37.468;2023-04-19T03:27:34;99951.06;;;10.30;40.05
49178;BME280;35016;55.674;37.468;2023-04-19T03:30:07;99947.63;;;10.34;40.37
49178;BME280;35016;55.674;37.468;2023-04-19T03:32:34;99948.75;;;10.38;39.82
49178;BME280;35016;55.674;37.468;2023-04-19T03:35:02;99952.28;;;10.39;40.17
49178;BME280;35016;55.674;37.468;2023-04-19T03:37:29;99957.25;;;10.42;39.85
49178;BME280;35016;55.674;37.468;2023-04-19T03:39:57;99949.69;;;10.44;40.17
49178;BME280;35016;55.674;37.468;2023-04-19T03:42:30;99959.78;;;10.48;40.12
49178;BME280;35016;55.674;37.468;2023-04-19T03:45:18;99952.81;;;10.52;40.01
49178;BME280;35016;55.674;37.468;2023-04-19T03:47:46;99954.19;;;10.55;40.30
49178;BME280;35016;55.674;37.468;2023-04-19T03:50:14;99960.25;;;10.62;39.98
49178;BME280;35016;55.674;37.468;2023-04-19T03:52:45;99948.91;;;10.65;39.88
49178;BME280;35016;55.674;37.468;2023-04-19T03:55:12;99958.53;;;10.73;39.46
49178;BME280;35016;55.674;37.468;2023-04-19T03:57:39;99963.22;;;10.77;40.01
49178;BME280;35016;55.674;37.468;2023-04-19T04:00:18;99963.28;;;10.82;39.80
49178;BME280;35016;55.674;37.468;2023-04-19T04:02:52;99955.97;;;10.83;39.52
49178;BME280;35016;55.674;37.468;2023-04-19T04:05:20;99962.53;;;10.87;39.53
49178;BME280;35016;55.674;37.468;2023-04-19T04:07:48;99964.50;;;10.92;39.20
49178;BME280;35016;55.674;37.468;2023-04-19T04:10:15;99970.81;;;10.97;39.84
49178;BME280;35016;55.674;37.468;2023-04-19T04:12:42;99965.78;;;11.06;39.07
49178;BME280;35016;55.674;37.468;2023-04-19T04:15:14;99964.22;;;11.10;39.36
49178;BME280;35016;55.674;37.468;2023-04-19T04:17:46;99963.00;;;11.23;39.48
49178;BME280;35016;55.674;37.468;2023-04-19T04:20:13;99965.81;;;11.28;39.09
49178;BME280;35016;55.674;37.468;2023-04-19T04:22:42;99962.38;;;11.37;39.06
49178;BME280;35016;55.674;37.468;2023-04-19T04:25:14;99973.63;;;11.46;39.37
49178;BME280;35016;55.674;37.468;2023-04-19T04:27:45;99967.16;;;11.52;39.14
49178;BME280;35016;55.674;37.468;2023-04-19T04:30:17;99968.38;;;11.61;38.67
49178;BME280;35016;55.674;37.468;2023-04-19T04:32:44;99976.06;;;11.69;39.14
49178;BME280;35016;55.674;37.468;2023-04-19T04:35:13;99971.84;;;11.78;38.79
49178;BME280;35016;55.674;37.468;2023-04-19T04:37:55;99969.16;;;11.84;38.75
49178;BME280;35016;55.674;37.468;2023-04-19T04:40:22;99976.88;;;11.92;38.22
49178;BME280;35016;55.674;37.468;2023-04-19T04:42:49;99978.56;;;11.98;38.63
49178;BME280;35016;55.674;37.468;2023-04-19T04:45:19;99980.00;;;12.05;38.03
49178;BME280;35016;55.674;37.468;2023-04-19T04:47:49;99982.84;;;12.16;38.58
49178;BME280;35016;55.674;37.468;2023-04-19T04:50:17;99978.84;;;12.28;38.42
49178;BME280;35016;55.674;37.468;2023-04-19T04:52:47;99977.59;;;12.41;38.50
49178;BME280;35016;55.674;37.468;2023-04-19T04:55:22;99983.13;;;12.51;37.93
49178;BME280;35016;55.674;37.468;2023-04-19T04:57:49;99985.91;;;12.61;37.85
49178;BME280;35016;55.674;37.468;2023-04-19T05:00:24;99990.13;;;12.74;37.98
49178;BME280;35016;55.674;37.468;2023-04-19T05:03:03;99984.97;;;12.78;37.93
49178;BME280;35016;55.674;37.468;2023-04-19T05:05:35;99971.66;;;12.81;37.84
49178;BME280;35016;55.674;37.468;2023-04-19T05:08:03;99992.09;;;12.89;37.73
49178;BME280;35016;55.674;37.468;2023-04-19T05:10:30;99985.84;;;12.88;37.63
49178;BME280;35016;55.674;37.468;2023-04-19T05:12:58;99985.28;;;12.86;37.51
49178;BME280;35016;55.674;37.468;2023-04-19T05:15:27;99992.63;;;12.86;37.40
49178;BME280;35016;55.674;37.468;2023-04-19T05:17:54;99989.13;;;12.90;37.25
49178;BME280;35016;55.674;37.468;2023-04-19T05:20:21;99998.13;;;12.96;37.35
49178;BME280;35016;55.674;37.468;2023-04-19T05:22:57;99996.56;;;13.05;37.22
49178;BME280;35016;55.674;37.468;2023-04-19T05:25:25;100001.50;;;13.13;37.05
49178;BME280;35016;55.674;37.468;2023-04-19T05:27:53;99987.72;;;13.25;36.97
49178;BME280;35016;55.674;37.468;2023-04-19T05:30:21;99993.22;;;13.35;36.89
49178;BME280;35016;55.674;37.468;2023-04-19T05:32:49;99998.97;;;13.44;36.79
49178;BME280;35016;55.674;37.468;2023-04-19T05:35:17;100007.16;;;13.49;36.49
49178;BME280;35016;55.674;37.468;2023-04-19T05:37:45;99995.19;;;13.55;36.18
49178;BME280;35016;55.674;37.468;2023-04-19T05:40:12;100005.81;;;13.56;36.47
49178;BME280;35016;55.674;37.468;2023-04-19T05:42:40;100003.41;;;13.60;36.52
49178;BME280;35016;55.674;37.468;2023-04-19T05:45:09;100007.78;;;13.66;36.46
49178;BME280;35016;55.674;37.468;2023-04-19T05:47:37;100000.72;;;13.70;36.29
49178;BME280;35016;55.674;37.468;2023-04-19T05:50:25;100006.19;;;13.75;36.20
49178;BME280;35016;55.674;37.468;2023-04-19T05:53:18;100013.53;;;13.75;36.12
49178;BME280;35016;55.674;37.468;2023-04-19T05:55:46;100013.53;;;13.75;36.14
49178;BME280;35016;55.674;37.468;2023-04-19T05:58:15;100007.53;;;13.78;36.00
49178;BME280;35016;55.674;37.468;2023-04-19T06:00:44;100017.66;;;13.82;35.72
49178;BME280;35016;55.674;37.468;2023-04-19T06:03:15;100009.75;;;13.86;35.74
49178;BME280;35016;55.674;37.468;2023-04-19T06:05:43;100015.78;;;13.93;35.59
49178;BME280;35016;55.674;37.468;2023-04-19T06:08:10;100012.78;;;14.00;35.35
49178;BME280;35016;55.674;37.468;2023-04-19T06:10:37;100020.97;;;14.05;35.36
49178;BME280;35016;55.674;37.468;2023-04-19T06:13:20;100015.53;;;14.10;35.34
49178;BME280;35016;55.674;37.468;2023-04-19T06:15:47;100021.81;;;14.15;35.25
49178;BME280;35016;55.674;37.468;2023-04-19T06:18:15;100010.94;;;14.20;35.01
49178;BME280;35016;55.674;37.468;2023-04-19T06:20:46;100017.22;;;14.21;34.77
49178;BME280;35016;55.674;37.468;2023-04-19T06:23:13;100020.72;;;14.16;34.84
49178;BME280;35016;55.674;37.468;2023-04-19T06:25:41;100028.94;;;14.21;34.86
49178;BME280;35016;55.674;37.468;2023-04-19T06:28:08;100015.84;;;14.29;34.59
49178;BME280;35016;55.674;37.468;2023-04-19T06:30:35;100019.13;;;14.31;34.41
49178;BME280;35016;55.674;37.468;2023-04-19T06:33:02;100016.66;;;14.39;34.24
49178;BME280;35016;55.674;37.468;2023-04-19T06:35:30;100009.31;;;14.40;34.03
49178;BME280;35016;55.674;37.468;2023-04-19T06:38:00;100023.25;;;14.43;33.71
49178;BME280;35016;55.674;37.468;2023-04-19T06:40:28;100021.06;;;14.45;33.90
49178;BME280;35016;55.674;37.468;2023-04-19T06:42:55;100022.19;;;14.49;33.73
49178;BME280;35016;55.674;37.468;2023-04-19T06:45:22;100030.09;;;14.51;33.58
49178;BME280;35016;55.674;37.468;2023-04-19T06:47:49;100027.09;;;14.52;33.34
49178;BME280;35016;55.674;37.468;2023-04-19T06:50:16;100029.28;;;14.55;33.25
49178;BME280;35016;55.674;37.468;2023-04-19T06:52:45;100026.28;;;14.62;33.27
49178;BME280;35016;55.674;37.468;2023-04-19T06:55:12;100016.16;;;14.68;33.08
49178;BME280;35016;55.674;37.468;2023-04-19T06:57:40;100028.72;;;14.69;33.00
49178;BME280;35016;55.674;37.468;2023-04-19T07:00:09;100013.16;;;14.64;33.00
49178;BME280;35016;55.674;37.468;2023-04-19T07:02:36;100035.28;;;14.57;32.81
49178;BME280;35016;55.674;37.468;2023-04-19T07:05:04;100019.44;;;14.54;32.70
49178;BME280;35016;55.674;37.468;2023-04-19T07:07:31;100017.28;;;14.51;32.57
49178;BME280;35016;55.674;37.468;2023-04-19T07:09:59;100021.63;;;14.47;32.68
49178;BME280;35016;55.674;37.468;2023-04-19T07:12:26;100015.91;;;14.49;32.38
49178;BME280;35016;55.674;37.468;2023-04-19T07:14:54;100018.91;;;14.52;32.14
49178;BME280;35016;55.674;37.468;2023-04-19T07:17:23;100023.28;;;14.59;32.20
49178;BME280;35016;55.674;37.468;2023-04-19T07:19:50;100014.81;;;14.65;32.23
49178;BME280;35016;55.674;37.468;2023-04-19T07:22:17;100009.34;;;14.80;32.11
49178;BME280;35016;55.674;37.468;2023-04-19T07:24:44;100010.97;;;14.92;31.77
49178;BME280;35016;55.674;37.468;2023-04-19T07:27:11;100013.94;;;15.00;31.36
49178;BME280;35016;55.674;37.468;2023-04-19T07:29:42;100013.69;;;15.07;31.28
49178;BME280;35016;55.674;37.468;2023-04-19T07:32:11;100013.94;;;15.15;30.94
49178;BME280;35016;55.674;37.468;2023-04-19T07:34:42;100015.25;;;15.23;30.89
49178;BME280;35016;55.674;37.468;2023-04-19T07:37:09;100007.03;;;15.28;30.59
49178;BME280;35016;55.674;37.468;2023-04-19T07:39:38;100017.16;;;15.33;30.64
49178;BME280;35016;55.674;37.468;2023-04-19T07:42:08;100015.50;;;15.37;30.93
49178;BME280;35016;55.674;37.468;2023-04-19T07:44:37;100015.50;;;15.42;30.46
49178;BME280;35016;55.674;37.468;2023-04-19T07:47:04;100023.38;;;15.54;30.54
49178;BME280;35016;55.674;37.468;2023-04-19T07:49:38;100008.34;;;15.61;30.35
49178;BME280;35016;55.674;37.468;2023-04-19T07:52:08;100014.59;;;15.72;30.25
49178;BME280;35016;55.674;37.468;2023-04-19T07:54:35;100027.38;;;15.82;30.30
49178;BME280;35016;55.674;37.468;2023-04-19T07:57:04;100021.34;;;15.85;30.40
49178;BME280;35016;55.674;37.468;2023-04-19T07:59:32;100028.69;;;15.89;30.05
49178;BME280;35016;55.674;37.468;2023-04-19T08:01:59;100025.69;;;15.96;29.95
49178;BME280;35016;55.674;37.468;2023-04-19T08:04:26;100030.31;;;16.00;29.94
49178;BME280;35016;55.674;37.468;2023-04-19T08:06:57;100031.38;;;16.04;29.61
49178;BME280;35016;55.674;37.468;2023-04-19T08:09:28;100030.28;;;16.05;29.51
49178;BME280;35016;55.674;37.468;2023-04-19T08:11:55;100014.13;;;16.04;29.23
49178;BME280;35016;55.674;37.468;2023-04-19T08:14:23;100017.72;;;15.99;29.50
49178;BME280;35016;55.674;37.468;2023-04-19T08:17:06;100019.41;;;15.95;29.52
49178;BME280;35016;55.674;37.468;2023-04-19T08:19:52;100009.56;;;15.94;29.27
49178;BME280;35016;55.674;37.468;2023-04-19T08:22:20;100024.31;;;15.98;29.37
49178;BME280;35016;55.674;37.468;2023-04-19T08:24:50;100016.88;;;16.04;29.44
49178;BME280;35016;55.674;37.468;2023-04-19T08:27:19;100006.97;;;16.13;28.94
49178;BME280;35016;55.674;37.468;2023-04-19T08:29:48;100018.44;;;16.20;28.95
49178;BME280;35016;55.674;37.468;2023-04-19T08:32:17;100010.75;;;16.22;28.72
49178;BME280;35016;55.674;37.468;2023-04-19T08:34:44;100016.19;;;16.27;29.06
49178;BME280;35016;55.674;37.468;2023-04-19T08:37:12;100006.88;;;16.28;28.70
49178;BME280;35016;55.674;37.468;2023-04-19T08:39:39;100000.63;;;16.23;29.07
49178;BME280;35016;55.674;37.468;2023-04-19T08:42:08;100013.44;;;16.27;29.06
49178;BME280;35016;55.674;37.468;2023-04-19T08:44:55;100002.69;;;16.36;28.52
49178;BME280;35016;55.674;37.468;2023-04-19T08:47:44;100004.88;;;16.39;28.42
49178;BME280;35016;55.674;37.468;2023-04-19T08:50:27;100011.66;;;16.47;28.85
49178;BME280;35016;55.674;37.468;2023-04-19T08:52:59;100015.72;;;16.54;28.50
49178;BME280;35016;55.674;37.468;2023-04-19T08:55:48;100009.09;;;16.60;28.18
49178;BME280;35016;55.674;37.468;2023-04-19T08:58:36;100019.47;;;16.63;28.39
49178;BME280;35016;55.674;37.468;2023-04-19T09:01:07;100012.34;;;16.62;28.17
49178;BME280;35016;55.674;37.468;2023-04-19T09:03:43;100009.63;;;16.62;27.71
49178;BME280;35016;55.674;37.468;2023-04-19T09:06:38;100010.66;;;16.71;27.65
49178;BME280;35016;55.674;37.468;2023-04-19T09:09:15;100000.50;;;16.77;27.39
49178;BME280;35016;55.674;37.468;2023-04-19T09:11:45;100011.19;;;16.73;27.60
49178;BME280;35016;55.674;37.468;2023-04-19T09:14:17;99998.06;;;16.70;26.74
49178;BME280;35016;55.674;37.468;2023-04-19T09:16:44;99997.28;;;16.65;27.39
49178;BME280;35016;55.674;37.468;2023-04-19T09:19:12;99986.69;;;16.53;27.30
49178;BME280;35016;55.674;37.468;2023-04-19T09:21:50;99987.06;;;16.41;27.18
49178;BME280;35016;55.674;37.468;2023-04-19T09:24:40;99978.66;;;16.33;26.95
49178;BME280;35016;55.674;37.468;2023-04-19T09:27:10;99991.25;;;16.29;27.78
49178;BME280;35016;55.674;37.468;2023-04-19T09:29:38;99983.34;;;16.27;27.58
49178;BME280;35016;55.674;37.468;2023-04-19T09:32:05;99987.38;;;16.35;27.63
49178;BME280;35016;55.674;37.468;2023-04-19T09:34:32;99986.47;;;16.50;27.74
49178;BME280;35016;55.674;37.468;2023-04-19T09:37:12;99987.41;;;16.64;26.69
49178;BME280;35016;55.674;37.468;2023-04-19T09:39:58;99980.00;;;16.69;27.51
49178;BME280;35016;55.674;37.468;2023-04-19T09:42:44;99982.69;;;16.75;26.75
49178;BME280;35016;55.674;37.468;2023-04-19T09:45:18;99981.28;;;16.82;26.95
49178;BME280;35016;55.674;37.468;2023-04-19T09:48:05;99982.22;;;16.96;27.27
49178;BME280;35016;55.674;37.468;2023-04-19T09:50:49;99978.28;;;17.08;26.99
49178;BME280;35016;55.674;37.468;2023-04-19T09:53:27;99981.66;;;17.23;26.74
49178;BME280;35016;55.674;37.468;2023-04-19T09:55:55;99966.66;;;17.40;26.62
49178;BME280;35016;55.674;37.468;2023-04-19T09:58:47;99966.81;;;17.48;26.65
49178;BME280;35016;55.674;37.468;2023-04-19T10:01:23;99958.97;;;17.42;27.05
49178;BME280;35016;55.674;37.468;2023-04-19T10:03:52;99964.97;;;17.44;26.73
49178;BME280;35016;55.674;37.468;2023-04-19T10:06:21;99962.69;;;17.51;26.78
49178;BME280;35016;55.674;37.468;2023-04-19T10:08:53;99966.22;;;17.51;26.28
49178;BME280;35016;55.674;37.468;2023-04-19T10:11:21;99967.78;;;17.57;26.70
49178;BME280;35016;55.674;37.468;2023-04-19T10:13:55;99964.97;;;17.68;26.48
49178;BME280;35016;55.674;37.468;2023-04-19T10:16:23;99965.34;;;17.80;26.35
49178;BME280;35016;55.674;37.468;2023-04-19T10:18:51;99959.47;;;17.86;26.48
49178;BME280;35016;55.674;37.468;2023-04-19T10:21:19;99947.84;;;17.94;26.26
49178;BME280;35016;55.674;37.468;2023-04-19T10:23:47;99960.59;;;18.04;26.19
49178;BME280;35016;55.674;37.468;2023-04-19T10:26:14;99950.06;;;18.11;25.78
49178;BME280;35016;55.674;37.468;2023-04-19T10:28:41;99957.31;;;18.21;26.10
49178;BME280;35016;55.674;37.468;2023-04-19T10:31:11;99947.59;;;18.29;25.95
49178;BME280;35016;55.674;37.468;2023-04-19T10:33:40;99945.47;;;18.25;25.94
49178;BME280;35016;55.674;37.468;2023-04-19T10:36:09;99947.44;;;18.20;26.00
49178;BME280;35016;55.674;37.468;2023-04-19T10:38:57;99955.84;;;18.29;25.92
49178;BME280;35016;55.674;37.468;2023-04-19T10:41:56;99946.91;;;18.37;25.65
49178;BME280;35016;55.674;37.468;2023-04-19T10:44:24;99937.66;;;18.46;25.76
49178;BME280;35016;55.674;37.468;2023-04-19T10:46:51;99942.28;;;18.51;25.72
49178;BME280;35016;55.674;37.468;2023-04-19T10:49:22;99939.91;;;18.44;25.96
49178;BME280;35016;55.674;37.468;2023-04-19T10:51:49;99936.75;;;18.37;26.13
49178;BME280;35016;55.674;37.468;2023-04-19T10:54:31;99932.38;;;18.36;25.76
49178;BME280;35016;55.674;37.468;2023-04-19T10:57:01;99939.41;;;18.42;25.76
49178;BME280;35016;55.674;37.468;2023-04-19T10:59:34;99940.34;;;18.51;25.74
49178;BME280;35016;55.674;37.468;2023-04-19T11:07:15;99922.25;;;18.83;26.07
49178;BME280;35016;55.674;37.468;2023-04-19T11:09:45;99922.59;;;18.76;25.76
49178;BME280;35016;55.674;37.468;2023-04-19T11:12:18;99922.06;;;18.61;25.77
49178;BME280;35016;55.674;37.468;2023-04-19T11:14:47;99925.25;;;18.49;26.15
49178;BME280;35016;55.674;37.468;2023-04-19T11:17:22;99912.97;;;18.46;25.76
49178;BME280;35016;55.674;37.468;2023-04-19T11:20:07;99918.75;;;18.45;26.02
49178;BME280;35016;55.674;37.468;2023-04-19T11:22:45;99915.19;;;18.44;25.94
49178;BME280;35016;55.674;37.468;2023-04-19T11:25:20;99908.97;;;18.39;25.69
49178;BME280;35016;55.674;37.468;2023-04-19T11:27:50;99905.13;;;18.40;25.94
49178;BME280;35016;55.674;37.468;2023-04-19T11:30:20;99915.50;;;18.43;25.89
49178;BME280;35016;55.674;37.468;2023-04-19T11:32:51;99903.84;;;18.51;25.80
49178;BME280;35016;55.674;37.468;2023-04-19T11:35:23;99911.47;;;18.54;25.94
49178;BME280;35016;55.674;37.468;2023-04-19T11:37:52;99916.97;;;18.54;25.87
49178;BME280;35016;55.674;37.468;2023-04-19T11:40:20;99907.31;;;18.56;26.04
49178;BME280;35016;55.674;37.468;2023-04-19T11:42:58;99913.09;;;18.55;25.63
49178;BME280;35016;55.674;37.468;2023-04-19T11:45:30;99900.75;;;18.39;25.67
49178;BME280;35016;55.674;37.468;2023-04-19T11:48:04;99895.59;;;18.18;26.03
49178;BME280;35016;55.674;37.468;2023-04-19T11:50:42;99900.59;;;17.98;26.10
49178;BME280;35016;55.674;37.468;2023-04-19T11:53:17;99907.88;;;17.88;25.89
49178;BME280;35016;55.674;37.468;2023-04-19T11:55:54;99895.34;;;18.01;26.10
49178;BME280;35016;55.674;37.468;2023-04-19T12:00:52;99899.44;;;18.82;25.63
49178;BME280;35016;55.674;37.468;2023-04-19T12:03:20;99899.03;;;19.16;25.27
49178;BME280;35016;55.674;37.468;2023-04-19T12:05:56;99890.56;;;19.27;25.23
49178;BME280;35016;55.674;37.468;2023-04-19T12:08:37;99880.78;;;19.84;24.80
49178;BME280;35016;55.674;37.468;2023-04-19T12:11:05;99881.66;;;20.60;24.86
49178;BME280;35016;55.674;37.468;2023-04-19T12:13:38;99881.06;;;21.20;23.81
49178;BME280;35016;55.674;37.468;2023-04-19T12:16:07;99878.88;;;21.65;24.01
49178;BME280;35016;55.674;37.468;2023-04-19T12:19:09;99880.66;;;22.39;23.00
49178;BME280;35016;55.674;37.468;2023-04-19T12:21:37;99878.50;;;22.53;23.66
49178;BME280;35016;55.674;37.468;2023-04-19T12:24:07;99878.88;;;22.26;23.51
49178;BME280;35016;55.674;37.468;2023-04-19T12:26:51;99872.75;;;21.77;22.70
49178;BME280;35016;55.674;37.468;2023-04-19T12:29:21;99891.78;;;21.22;23.44
49178;BME280;35016;55.674;37.468;2023-04-19T12:31:49;99877.59;;;21.63;23.62
49178;BME280;35016;55.674;37.468;2023-04-19T12:34:16;99874.34;;;22.39;23.13
49178;BME280;35016;55.674;37.468;2023-04-19T12:36:43;99873.16;;;22.48;22.45
49178;BME280;35016;55.674;37.468;2023-04-19T12:39:11;99870.25;;;22.45;22.47
49178;BME280;35016;55.674;37.468;2023-04-19T12:41:40;99866.00;;;23.03;22.19
49178;BME280;35016;55.674;37.468;2023-04-19T12:44:07;99864.09;;;23.74;21.85
49178;BME280;35016;55.674;37.468;2023-04-19T12:46:34;99864.91;;;24.62;21.08
49178;BME280;35016;55.674;37.468;2023-04-19T12:49:02;99864.78;;;25.44;20.83
49178;BME280;35016;55.674;37.468;2023-04-19T12:51:29;99859.28;;;26.12;19.90
49178;BME280;35016;55.674;37.468;2023-04-19T12:53:59;99851.22;;;26.50;19.65
49178;BME280;35016;55.674;37.468;2023-04-19T12:56:30;99848.94;;;25.97;19.33
49178;BME280;35016;55.674;37.468;2023-04-19T12:58:59;99858.94;;;25.09;19.31
49178;BME280;35016;55.674;37.468;2023-04-19T13:01:26;99863.78;;;24.09;19.74
49178;BME280;35016;55.674;37.468;2023-04-19T13:03:54;99847.63;;;23.28;20.25
49178;BME280;35016;55.674;37.468;2023-04-19T13:06:24;99853.22;;;22.81;20.57
49178;BME280;35016;55.674;37.468;2023-04-19T13:08:52;99852.09;;;22.27;20.66
49178;BME280;35016;55.674;37.468;2023-04-19T13:11:20;99846.41;;;21.62;21.10